Time;durP1;ratioP1;P1;durP2;ratioP2;P2;SDS_P1;SDS_P2;PMS_P1;PMS_P2;Temp;Humidity;BMP_temperature;BMP_pressure;BME280_temperature;BME280_humidity;BME280_pressure;Samples;Min_cycle;Max_cycle;Signal;HPM_P1;HPM_P2
2022/01/14 00:03:15;;;;;;;76.28;16.70;;;;;;;3.07;93.42;103702.13;10471064;28;20369;-82
2022/01/14 00:08:16;;;;;;;67.03;15.75;;;;;;;3.15;92.72;103698.72;10459947;28;20431;-82
2022/01/14 00:13:50;;;;;;;72.68;16.52;;;;;;;3.19;92.66;103705.03;10447240;28;20570;-82
2022/01/14 00:18:52;;;;;;;74.80;15.17;;;;;;;3.10;92.45;103706.63;10436000;28;20053;-81
2022/01/14 00:24:05;;;;;;;73.95;16.58;;;;;;;3.15;92.88;103693.63;10476832;28;20064;-82
2022/01/14 00:34:27;;;;;;;106.65;17.83;;;;;;;3.25;92.84;103712.34;10477539;28;20047;-82
2022/01/14 00:39:29;;;;;;;67.72;17.30;;;;;;;3.23;92.70;103703.69;10437857;28;20076;-81
2022/01/14 00:44:31;;;;;;;62.17;15.35;;;;;;;3.35;92.63;103704.03;10449441;28;20396;-82
2022/01/14 00:49:33;;;;;;;61.88;15.02;;;;;;;3.18;92.56;103708.31;10428466;28;20053;-81
2022/01/14 00:54:35;;;;;;;74.88;16.17;;;;;;;3.34;92.75;103703.09;10471885;28;20044;-83
2022/01/14 00:59:37;;;;;;;64.65;16.45;;;;;;;3.31;93.00;103697.72;10458404;28;20060;-81
2022/01/14 01:04:40;;;;;;;64.45;15.38;;;;;;;3.41;92.02;103690.22;10457790;28;20045;-82
2022/01/14 01:09:46;;;;;;;65.72;16.70;;;;;;;3.41;91.82;103691.88;10457894;28;20045;-81
2022/01/14 01:14:52;;;;;;;52.95;14.65;;;;;;;3.21;92.01;103672.03;10459443;28;20492;-82
2022/01/14 01:19:54;;;;;;;70.70;16.70;;;;;;;3.43;92.58;103668.34;10461453;28;20091;-82
2022/01/14 01:24:56;;;;;;;57.97;15.30;;;;;;;3.57;91.57;103668.81;10472125;28;20576;-82
2022/01/14 01:30:13;;;;;;;63.33;17.20;;;;;;;3.23;92.49;103668.00;10458984;28;20087;-82
2022/01/14 01:35:15;;;;;;;60.72;16.88;;;;;;;3.23;91.99;103663.81;10456814;28;20099;-83
2022/01/14 01:40:19;;;;;;;53.08;15.80;;;;;;;3.24;91.30;103662.16;10469644;28;20075;-82
2022/01/14 01:45:24;;;;;;;67.60;16.52;;;;;;;3.36;91.33;103660.84;10487520;28;20495;-82
2022/01/14 01:50:28;;;;;;;64.57;17.35;;;;;;;3.38;91.06;103664.44;10478971;28;20049;-83
2022/01/14 01:55:30;;;;;;;70.72;16.42;;;;;;;3.45;91.54;103654.13;10464192;28;20048;-82
2022/01/14 02:00:32;;;;;;;63.88;17.08;;;;;;;3.41;91.74;103662.19;10480132;28;20044;-82
2022/01/14 02:05:34;;;;;;;70.75;16.65;;;;;;;3.40;91.39;103656.94;10478731;28;20047;-82
2022/01/14 02:11:07;;;;;;;64.60;17.05;;;;;;;3.24;92.23;103650.31;10494712;28;20513;-82
2022/01/14 02:16:19;;;;;;;70.47;18.17;;;;;;;3.17;91.74;103637.72;10464813;28;20140;-83
2022/01/14 02:26:52;;;;;;;61.65;17.95;;;;;;;3.09;91.35;103633.50;10494618;28;19935;-83
2022/01/14 02:31:54;;;;;;;68.93;17.75;;;;;;;3.35;91.39;103642.84;10442310;28;20037;-82
2022/01/14 02:36:56;;;;;;;67.95;18.20;;;;;;;3.25;91.39;103643.56;10456341;28;20094;-82
2022/01/14 02:41:58;;;;;;;75.85;18.23;;;;;;;3.34;91.88;103647.03;10454798;28;20045;-82
2022/01/14 02:47:05;;;;;;;78.38;18.65;;;;;;;3.26;91.79;103642.81;10471597;28;20046;-83
2022/01/14 02:52:08;;;;;;;81.95;17.63;;;;;;;3.23;91.64;103634.88;10439582;28;20551;-82
2022/01/14 02:57:13;;;;;;;64.95;18.90;;;;;;;3.14;91.72;103633.22;10457322;28;20072;-82
2022/01/14 03:02:15;;;;;;;74.03;19.50;;;;;;;3.16;91.92;103625.72;10465945;28;20072;-82
2022/01/14 03:07:17;;;;;;;70.05;20.10;;;;;;;3.20;92.49;103621.84;10434887;28;20404;-82
2022/01/14 03:12:19;;;;;;;71.80;20.38;;;;;;;3.10;91.56;103620.91;10473014;28;20087;-82
2022/01/14 03:17:21;;;;;;;73.85;19.90;;;;;;;3.25;91.81;103615.53;10462518;28;20127;-82
2022/01/14 03:22:28;;;;;;;75.35;19.80;;;;;;;3.09;91.85;103611.44;10479665;28;20140;-82
2022/01/14 03:27:30;;;;;;;81.07;20.23;;;;;;;3.08;92.06;103596.03;10457433;28;20506;-83
2022/01/14 03:32:34;;;;;;;88.65;20.83;;;;;;;3.09;91.91;103588.53;10492933;28;20068;-83
2022/01/14 03:37:39;;;;;;;80.65;20.95;;;;;;;3.11;91.51;103594.69;10449777;28;20159;-84
2022/01/14 03:42:40;;;;;;;80.20;19.83;;;;;;;3.06;92.27;103589.88;10486438;28;20040;-83
2022/01/14 03:47:42;;;;;;;84.72;21.05;;;;;;;3.10;92.12;103592.88;10475801;28;20476;-83
2022/01/14 03:52:44;;;;;;;87.50;20.75;;;;;;;2.91;92.56;103581.63;10460352;28;20041;-83
2022/01/14 03:57:45;;;;;;;76.35;19.80;;;;;;;3.06;92.95;103588.25;10411812;28;20451;-83
2022/01/14 04:02:47;;;;;;;75.45;19.55;;;;;;;2.88;92.62;103591.47;10451795;28;20114;-83
2022/01/14 04:07:51;;;;;;;87.07;19.92;;;;;;;2.89;93.14;103585.63;10452401;28;20261;-83
2022/01/14 04:17:59;;;;;;;87.70;18.80;;;;;;;2.99;92.02;103580.75;10518684;28;20053;-83
2022/01/14 04:23:00;;;;;;;88.72;19.92;;;;;;;3.08;92.15;103590.94;10525369;28;20102;-83
2022/01/14 04:28:03;;;;;;;114.60;20.73;;;;;;;2.95;92.75;103588.78;10451143;28;20148;-84
2022/01/14 04:33:05;;;;;;;84.13;20.85;;;;;;;2.99;92.45;103581.63;10447112;28;20460;-83
2022/01/14 04:38:07;;;;;;;89.43;20.60;;;;;;;2.91;92.86;103577.41;10459792;28;20079;-83
2022/01/14 04:43:08;;;;;;;100.00;20.83;;;;;;;3.00;93.00;103577.44;10453093;28;20040;-83
2022/01/14 04:48:11;;;;;;;107.35;21.02;;;;;;;2.95;92.23;103579.53;10484710;28;20049;-84
2022/01/14 04:53:14;;;;;;;111.78;21.58;;;;;;;3.06;92.22;103583.16;10458890;28;20124;-83
2022/01/14 04:58:15;;;;;;;113.03;20.25;;;;;;;3.13;92.42;103572.81;10451859;28;20136;-83
2022/01/14 05:03:17;;;;;;;82.80;20.38;;;;;;;3.04;92.82;103568.47;10444005;28;20165;-83
2022/01/14 05:08:24;;;;;;;85.32;20.63;;;;;;;3.02;92.67;103545.38;10458765;28;20037;-83
2022/01/14 05:13:25;;;;;;;130.57;21.25;;;;;;;3.11;92.23;103553.03;10463232;28;20033;-84
2022/01/14 05:18:27;;;;;;;127.40;21.40;;;;;;;3.06;92.10;103547.50;10482585;28;20072;-83
2022/01/14 05:23:28;;;;;;;142.95;21.45;;;;;;;3.11;92.70;103547.94;10458691;28;20072;-83
2022/01/14 05:28:30;;;;;;;159.88;22.70;;;;;;;3.07;92.23;103533.09;10459612;28;20526;-86
2022/01/14 05:33:32;;;;;;;148.07;20.58;;;;;;;3.00;92.89;103546.88;10460822;28;20511;-83
2022/01/14 05:38:34;;;;;;;156.00;21.45;;;;;;;3.07;92.29;103541.66;10459784;28;20161;-83
2022/01/14 05:43:35;;;;;;;167.10;19.33;;;;;;;3.05;92.60;103545.69;10459415;28;20068;-82
2022/01/14 05:48:37;;;;;;;142.40;19.50;;;;;;;2.97;92.66;103541.47;10458808;28;20057;-82
2022/01/14 05:53:39;;;;;;;135.68;21.60;;;;;;;3.06;92.64;103542.41;10458836;28;20049;-82
2022/01/14 05:58:43;;;;;;;148.32;21.60;;;;;;;3.01;92.85;103520.66;10459018;28;20080;-82
2022/01/14 06:03:45;;;;;;;163.60;19.70;;;;;;;3.00;92.78;103518.88;10458417;28;20103;-83
2022/01/14 06:08:49;;;;;;;142.75;19.30;;;;;;;2.84;92.61;103512.25;10459535;28;20048;-81
2022/01/14 06:13:50;;;;;;;162.02;21.40;;;;;;;2.87;93.41;103526.03;10458396;28;20125;-82
2022/01/14 06:18:53;;;;;;;127.20;19.25;;;;;;;2.93;93.23;103511.38;10474970;28;20044;-81
2022/01/14 06:23:54;;;;;;;204.70;20.15;;;;;;;2.90;93.34;103508.50;10471301;28;20563;-81
2022/01/14 06:28:56;;;;;;;143.25;19.15;;;;;;;2.85;93.54;103521.69;10450224;28;20049;-81
2022/01/14 06:33:58;;;;;;;225.05;21.30;;;;;;;2.96;92.84;103510.03;10466773;28;20416;-82
2022/01/14 06:39:03;;;;;;;142.27;19.25;;;;;;;2.94;93.33;103508.97;10440283;28;20559;-80
2022/01/14 06:44:06;;;;;;;152.93;18.95;;;;;;;2.85;93.50;103510.59;10473503;28;20041;-81
2022/01/14 06:49:10;;;;;;;166.13;18.27;;;;;;;2.81;93.84;103499.19;10456637;28;20415;-80
2022/01/14 06:54:12;;;;;;;170.90;19.45;;;;;;;2.89;93.71;103496.50;10450963;28;20461;-81
2022/01/14 06:59:13;;;;;;;138.00;19.73;;;;;;;2.87;93.75;103504.00;10456370;28;20139;-81
2022/01/14 07:04:15;;;;;;;127.65;17.77;;;;;;;2.95;93.36;103522.59;10473770;28;20064;-80
2022/01/14 07:09:17;;;;;;;135.68;17.55;;;;;;;2.94;93.20;103515.72;10456991;28;20141;-81
2022/01/14 07:14:19;;;;;;;144.68;17.10;;;;;;;2.90;93.10;103506.88;10429332;28;20036;-81
2022/01/14 07:19:22;;;;;;;168.10;20.17;;;;;;;2.95;92.43;103507.31;10466042;28;20143;-81
2022/01/14 07:24:26;;;;;;;150.15;18.15;;;;;;;3.14;92.33;103526.22;10487016;28;20041;-81
2022/01/14 07:29:28;;;;;;;140.55;17.10;;;;;;;2.97;92.59;103505.81;10454031;28;20090;-81
2022/01/14 07:34:31;;;;;;;163.45;20.23;;;;;;;2.89;92.89;103506.69;10454684;28;20135;-82
2022/01/14 07:39:33;;;;;;;131.23;18.15;;;;;;;2.96;92.80;103529.47;10483624;28;20041;-82
2022/01/14 07:44:35;;;;;;;179.85;18.98;;;;;;;2.99;93.16;103525.59;10483465;28;20381;-81
2022/01/14 07:49:42;;;;;;;107.47;18.80;;;;;;;3.04;92.56;103518.41;10426578;28;20075;-82
2022/01/14 07:54:44;;;;;;;101.55;18.83;;;;;;;2.95;93.08;103518.41;10474966;28;20068;-81
2022/01/14 07:59:46;;;;;;;119.13;17.98;;;;;;;3.13;92.34;103546.44;10457572;28;20052;-82
2022/01/14 08:04:48;;;;;;;107.15;19.20;;;;;;;3.14;92.22;103553.31;10452739;28;20136;-81
2022/01/14 08:09:50;;;;;;;122.10;19.02;;;;;;;3.09;92.39;103540.13;10460761;28;20131;-81
2022/01/14 08:14:52;;;;;;;118.97;19.02;;;;;;;3.16;92.45;103556.94;10443142;28;20124;-83
2022/01/14 08:19:53;;;;;;;116.75;19.70;;;;;;;3.03;92.07;103562.44;10463031;28;20045;-83
2022/01/14 08:24:55;;;;;;;126.45;19.33;;;;;;;3.13;92.38;103570.28;10468318;28;20033;-83
2022/01/14 08:29:59;;;;;;;103.13;18.65;;;;;;;3.14;92.07;103576.25;10454043;28;20087;-83
2022/01/14 08:35:01;;;;;;;175.60;19.88;;;;;;;3.14;91.77;103572.06;10442836;28;20036;-82
2022/01/14 08:40:04;;;;;;;143.85;18.65;;;;;;;3.12;92.06;103568.47;10460662;28;20052;-83
2022/01/14 08:45:07;;;;;;;113.00;18.92;;;;;;;3.12;92.35;103568.47;10443978;28;20132;-83
2022/01/14 08:50:14;;;;;;;173.15;20.02;;;;;;;3.25;91.67;103574.75;10461444;28;20068;-83
2022/01/14 08:55:17;;;;;;;113.78;18.63;;;;;;;3.09;91.96;103569.81;10460676;28;20132;-83
2022/01/14 09:00:22;;;;;;;131.80;21.05;;;;;;;3.18;92.14;103558.88;10451228;28;20554;-82
2022/01/14 09:05:25;;;;;;;129.98;18.77;;;;;;;3.23;91.89;103576.28;10435478;28;20052;-82
2022/01/14 09:10:26;;;;;;;138.90;18.98;;;;;;;3.28;91.60;103562.34;10450580;28;20049;-83
2022/01/14 09:15:28;;;;;;;119.10;18.80;;;;;;;3.32;91.99;103573.00;10455074;28;20040;-83
2022/01/14 09:20:30;;;;;;;88.57;18.35;;;;;;;3.21;92.40;103575.22;10462493;28;20079;-83
2022/01/14 09:25:31;;;;;;;113.18;21.15;;;;;;;3.33;92.65;103578.97;10450491;28;20075;-83
2022/01/14 09:30:33;;;;;;;89.28;19.00;;;;;;;3.23;92.95;103587.38;10450081;28;20411;-83
2022/01/14 09:35:53;;;;;;;126.70;20.27;;;;;;;3.37;92.71;103576.00;10451946;28;20048;-85
2022/01/14 09:40:56;;;;;;;96.95;19.17;;;;;;;3.47;91.93;103588.00;10450972;28;20446;-85
2022/01/14 09:45:58;;;;;;;118.78;19.52;;;;;;;3.64;91.54;103587.09;10452623;28;20061;-85
2022/01/14 09:51:00;;;;;;;92.75;20.52;;;;;;;3.51;91.80;103582.44;10456067;28;20040;-86
2022/01/14 09:56:03;;;;;;;99.00;20.50;;;;;;;3.49;91.86;103577.19;10458385;28;20041;-85
2022/01/14 10:01:15;;;;;;;99.47;20.73;;;;;;;3.63;91.80;103583.66;10458117;28;20060;-84
2022/01/14 10:06:39;;;;;;;75.80;20.05;;;;;;;3.71;91.75;103578.38;10459191;28;20080;-85
2022/01/14 10:11:43;;;;;;;96.82;19.58;;;;;;;3.83;91.84;103581.22;10459367;28;20056;-82
2022/01/14 10:16:44;;;;;;;93.63;21.00;;;;;;;3.91;91.40;103583.75;10493111;28;20044;-82
2022/01/14 10:21:47;;;;;;;93.72;21.45;;;;;;;3.67;92.10;103587.41;10490998;28;20055;-81
2022/01/14 10:27:03;;;;;;;92.50;20.35;;;;;;;3.76;91.63;103588.25;10492145;28;20108;-81
2022/01/14 10:32:08;;;;;;;79.40;19.98;;;;;;;3.72;91.46;103586.19;10459137;28;20063;-81
2022/01/14 10:37:15;;;;;;;96.05;20.77;;;;;;;3.58;91.85;103586.50;10475249;28;20069;-82
2022/01/14 10:42:25;;;;;;;85.78;19.65;;;;;;;3.58;92.28;103578.84;10458803;28;20045;-82
2022/01/14 10:47:32;;;;;;;97.28;21.50;;;;;;;3.54;92.56;103574.22;10442198;28;20037;-82
2022/01/14 10:52:33;;;;;;;97.45;21.20;;;;;;;3.59;91.96;103573.00;10459533;28;20416;-81
2022/01/14 10:57:35;;;;;;;109.78;21.52;;;;;;;3.59;92.29;103573.88;10457798;28;20045;-82
2022/01/14 11:02:38;;;;;;;101.97;20.00;;;;;;;3.45;92.44;103562.38;10456930;28;20156;-82
2022/01/14 11:07:42;;;;;;;87.20;20.95;;;;;;;3.56;92.59;103568.50;10456833;28;20381;-81
2022/01/14 11:12:45;;;;;;;92.25;21.27;;;;;;;3.80;92.33;103569.06;10456081;28;20041;-85
2022/01/14 11:17:50;;;;;;;99.00;20.77;;;;;;;3.69;92.18;103568.03;10471752;28;20051;-85
2022/01/14 11:23:14;;;;;;;79.18;19.98;;;;;;;3.76;91.71;103567.88;10455254;28;20044;-86
2022/01/14 11:28:31;;;;;;;87.18;20.70;;;;;;;3.77;91.01;103572.22;10454310;28;20041;-85
2022/01/14 11:33:42;;;;;;;88.82;21.35;;;;;;;3.63;92.36;103576.00;10455414;28;20040;-86
2022/01/14 11:38:45;;;;;;;89.05;22.85;;;;;;;3.70;91.77;103563.84;10453619;28;20504;-86
2022/01/14 11:43:54;;;;;;;92.97;23.77;;;;;;;3.76;92.10;103552.56;10453121;28;20404;-85
2022/01/14 11:48:56;;;;;;;91.93;22.35;;;;;;;3.74;91.68;103541.34;10453061;28;20041;-85
2022/01/14 11:54:06;;;;;;;103.50;23.10;;;;;;;3.73;91.88;103546.28;10453348;28;20082;-85
2022/01/14 11:59:17;;;;;;;87.72;22.75;;;;;;;3.88;92.00;103552.84;10452892;28;20454;-86
2022/01/14 12:04:19;;;;;;;;;;;;;;;3.91;91.69;103549.72;10452919;28;20452;-86
2022/01/14 12:09:22;;;;;;;105.03;24.98;;;;;;;3.95;91.89;103554.34;10469160;28;20430;-86
2022/01/14 12:14:37;;;;;;;88.20;23.48;;;;;;;3.91;92.07;103535.31;10460674;28;20045;-87
2022/01/14 12:19:39;;;;;;;91.47;22.08;;;;;;;4.03;91.93;103540.66;10432557;28;20048;-86
2022/01/14 12:24:48;;;;;;;89.93;21.98;;;;;;;3.96;92.10;103543.41;10426580;28;20041;-86
2022/01/14 12:30:00;;;;;;;72.55;20.95;;;;;;;4.05;91.57;103540.81;10467361;28;20061;-86
2022/01/14 12:35:14;;;;;;;94.13;22.40;;;;;;;4.13;92.02;103540.78;10457515;28;20106;-87
2022/01/14 12:40:20;;;;;;;75.30;22.55;;;;;;;4.11;91.51;103546.50;10458557;28;20053;-86
2022/01/14 12:45:40;;;;;;;83.60;23.25;;;;;;;4.16;91.91;103527.44;10448619;28;20395;-87
2022/01/14 12:50:43;;;;;;;90.40;23.77;;;;;;;4.36;91.34;103529.28;10467892;28;20044;-87
2022/01/14 12:55:46;;;;;;;84.97;24.23;;;;;;;4.32;91.27;103529.75;10455609;28;20087;-85
2022/01/14 13:00:48;;;;;;;82.63;23.25;;;;;;;4.64;90.51;103516.56;10479285;28;20384;-87
2022/01/14 13:05:59;;;;;;;90.90;24.17;;;;;;;4.50;89.70;103511.81;10457808;28;20044;-86
2022/01/14 13:11:05;;;;;;;90.32;23.10;;;;;;;4.50;90.15;103522.91;10471296;28;20059;-87
2022/01/14 13:16:07;;;;;;;85.28;24.13;;;;;;;4.57;90.27;103515.06;10459704;28;20136;-86
2022/01/14 13:21:08;;;;;;;101.43;24.17;;;;;;;4.46;90.30;103510.66;10476754;28;20081;-85
2022/01/14 13:26:10;;;;;;;104.40;24.60;;;;;;;4.34;90.26;103515.50;10480007;28;20072;-86
2022/01/14 13:31:15;;;;;;;87.70;23.30;;;;;;;4.32;90.64;103517.00;10470662;28;20129;-86
2022/01/14 13:36:17;;;;;;;82.78;24.55;;;;;;;4.48;90.80;103515.88;10479811;28;20045;-87
2022/01/14 13:41:23;;;;;;;91.78;23.67;;;;;;;4.77;89.41;103508.34;10483052;28;20040;-87
2022/01/14 13:46:32;;;;;;;86.57;24.73;;;;;;;4.51;90.30;103504.28;10468625;28;20041;-86
2022/01/14 13:51:35;;;;;;;94.15;24.42;;;;;;;4.38;89.92;103507.34;10458554;28;20055;-86
2022/01/14 13:56:38;;;;;;;95.95;23.10;;;;;;;4.40;90.95;103500.75;10456577;28;20044;-86
2022/01/14 14:01:52;;;;;;;104.65;26.42;;;;;;;4.42;90.79;103501.81;10457643;28;20068;-86
2022/01/14 14:07:09;;;;;;;88.07;23.98;;;;;;;4.37;90.59;103499.56;10464631;28;20037;-86
2022/01/14 14:12:42;;;;;;;89.88;23.17;;;;;;;4.31;90.70;103494.78;10474974;28;20034;-87
2022/01/14 14:17:44;;;;;;;87.20;25.05;;;;;;;4.30;91.33;103498.09;10451031;28;20053;-88
2022/01/14 14:22:45;;;;;;;87.43;25.05;;;;;;;4.30;91.18;103492.97;10460181;28;20491;-86
2022/01/14 14:28:04;;;;;;;78.15;23.70;;;;;;;4.19;91.85;103498.75;10459836;28;20128;-86
2022/01/14 14:33:08;;;;;;;90.93;24.25;;;;;;;4.18;90.64;103496.94;10445063;28;20056;-86
2022/01/14 14:38:18;;;;;;;85.68;24.10;;;;;;;4.23;90.47;103503.38;10462017;28;20041;-86
2022/01/14 14:43:20;;;;;;;79.93;22.95;;;;;;;4.18;91.25;103502.06;10458350;28;20044;-86
2022/01/14 14:48:22;;;;;;;90.13;25.50;;;;;;;4.24;91.41;103498.44;10464373;28;20048;-88
2022/01/14 14:53:27;;;;;;;81.05;21.95;;;;;;;4.03;91.26;103502.41;10459289;28;20098;-88
2022/01/14 14:58:31;;;;;;;77.88;22.63;;;;;;;4.01;91.70;103503.91;10493166;28;20447;-85
2022/01/14 15:03:36;;;;;;;93.50;23.67;;;;;;;4.09;91.61;103500.44;10452842;28;20041;-85
2022/01/14 15:08:40;;;;;;;90.10;24.52;;;;;;;4.14;91.03;103498.31;10433324;28;20048;-85
2022/01/14 15:13:44;;;;;;;96.18;24.63;;;;;;;4.11;91.00;103501.47;10458668;28;20045;-86
2022/01/14 15:18:46;;;;;;;97.22;26.23;;;;;;;4.17;91.23;103510.47;10463701;28;20099;-85
2022/01/14 15:23:50;;;;;;;72.85;23.67;;;;;;;4.48;89.75;103503.13;10457520;28;20127;-85
2022/01/14 15:28:52;;;;;;;92.97;25.08;;;;;;;4.21;90.62;103502.31;10452480;28;20124;-85
2022/01/14 15:33:57;;;;;;;89.85;23.38;;;;;;;4.18;90.37;103507.16;10449036;28;20047;-85
2022/01/14 15:39:04;;;;;;;87.37;25.30;;;;;;;4.17;90.71;103495.16;10442397;28;20072;-86
2022/01/14 15:44:05;;;;;;;80.03;24.25;;;;;;;4.38;90.05;103497.16;10462289;28;20080;-85
2022/01/14 15:49:08;;;;;;;105.28;25.65;;;;;;;4.28;91.28;103494.50;10449898;28;20047;-85
2022/01/14 15:54:12;;;;;;;86.10;25.88;;;;;;;4.27;90.96;103488.50;10465044;28;20164;-85
2022/01/14 15:59:13;;;;;;;85.25;25.50;;;;;;;4.25;90.82;103489.09;10450684;28;20266;-85
2022/01/14 16:04:16;;;;;;;79.55;25.65;;;;;;;4.08;91.28;103485.88;10432572;28;20055;-86
2022/01/14 16:09:18;;;;;;;103.43;26.23;;;;;;;4.17;91.60;103485.81;10450218;28;20044;-85
2022/01/14 16:14:27;;;;;;;104.07;26.27;;;;;;;4.12;91.87;103490.53;10432116;28;20469;-85
2022/01/14 16:19:31;;;;;;;89.13;27.10;;;;;;;4.10;91.20;103484.38;10462192;28;20064;-85
2022/01/14 16:24:36;;;;;;;112.65;26.45;;;;;;;4.18;91.53;103481.63;10462651;28;20037;-86
2022/01/14 16:29:48;;;;;;;93.00;26.70;;;;;;;4.07;91.54;103480.63;10445738;28;20442;-85
2022/01/14 16:34:50;;;;;;;84.22;25.10;;;;;;;3.94;91.34;103476.94;10471773;28;20033;-87
2022/01/14 16:39:53;;;;;;;80.07;25.85;;;;;;;4.12;91.04;103471.75;10476809;28;20052;-86
2022/01/14 16:44:57;;;;;;;96.95;25.00;;;;;;;4.10;90.88;103473.25;10448286;28;20484;-86
2022/01/14 16:50:02;;;;;;;101.72;25.52;;;;;;;4.05;91.50;103475.41;10446413;28;20131;-85
2022/01/14 16:55:05;;;;;;;82.18;22.88;;;;;;;4.11;90.88;103475.97;10451634;28;20099;-85
2022/01/14 17:00:11;;;;;;;80.93;26.52;;;;;;;4.20;90.80;103469.94;10474277;28;20048;-85
2022/01/14 17:05:15;;;;;;;77.65;24.98;;;;;;;4.10;91.17;103469.06;10456042;28;20477;-86
2022/01/14 17:10:18;;;;;;;78.82;24.80;;;;;;;4.04;91.11;103483.81;10453546;28;20036;-85
2022/01/14 17:15:20;;;;;;;68.18;24.48;;;;;;;4.12;90.64;103493.06;10458939;28;20041;-86
2022/01/14 17:20:22;;;;;;;63.67;22.75;;;;;;;4.22;90.55;103489.72;10448668;28;20033;-86
2022/01/14 17:25:23;;;;;;;60.05;21.50;;;;;;;4.02;90.52;103495.50;10468859;28;20045;-86
2022/01/14 17:30:25;;;;;;;70.25;22.58;;;;;;;3.92;91.61;103493.75;10455355;28;20044;-86
2022/01/14 17:35:27;;;;;;;85.85;22.58;;;;;;;3.87;91.13;103489.84;10462742;28;20041;-86
2022/01/14 17:40:28;;;;;;;68.75;22.40;;;;;;;4.17;91.15;103484.94;10468349;28;20084;-86
2022/01/14 17:45:30;;;;;;;64.60;22.38;;;;;;;3.98;91.11;103478.13;10468716;28;20511;-86
2022/01/14 17:50:35;;;;;;;74.03;22.33;;;;;;;3.77;91.98;103482.09;10461796;28;20099;-87
2022/01/14 17:55:39;;;;;;;68.03;22.17;;;;;;;4.05;91.86;103480.50;10449037;28;20072;-87
2022/01/14 18:01:03;;;;;;;72.30;22.92;;;;;;;4.15;90.86;103476.22;10448912;28;20052;-87
2022/01/14 18:06:07;;;;;;;67.15;20.95;;;;;;;3.99;91.36;103464.59;10450728;28;20124;-88
2022/01/14 18:11:08;;;;;;;77.07;22.55;;;;;;;3.87;91.52;103458.34;10465321;28;20056;-89
2022/01/14 18:16:10;;;;;;;73.25;23.05;;;;;;;3.86;91.71;103456.53;10464384;28;20403;-87
2022/01/14 18:21:12;;;;;;;78.63;22.77;;;;;;;4.20;91.26;103459.72;10463405;28;20067;-86
2022/01/14 18:26:14;;;;;;;75.90;22.92;;;;;;;4.24;90.83;103465.25;10465311;28;20504;-86
2022/01/14 18:31:19;;;;;;;82.50;23.77;;;;;;;4.29;90.25;103466.56;10492445;28;20049;-87
2022/01/14 18:36:21;;;;;;;76.72;21.75;;;;;;;4.39;90.34;103458.09;10458687;28;20092;-86
2022/01/14 18:41:22;;;;;;;68.65;23.25;;;;;;;4.32;89.82;103450.66;10452519;28;20049;-86
2022/01/14 18:46:27;;;;;;;72.72;22.45;;;;;;;4.52;90.02;103454.13;10457909;28;20037;-86
2022/01/14 18:51:29;;;;;;;86.50;23.92;;;;;;;4.24;90.09;103456.69;10448779;28;20045;-86
2022/01/14 18:56:31;;;;;;;70.30;23.67;;;;;;;4.53;89.76;103445.72;10458163;28;20047;-86
2022/01/14 19:01:34;;;;;;;69.05;23.63;;;;;;;4.33;89.98;103442.22;10467859;28;20497;-86
2022/01/14 19:06:36;;;;;;;80.10;22.25;;;;;;;4.46;89.99;103434.06;10472650;28;20045;-86
2022/01/14 19:11:41;;;;;;;82.80;23.88;;;;;;;4.54;89.01;103432.19;10474273;28;20033;-86
2022/01/14 19:16:43;;;;;;;67.20;23.15;;;;;;;4.36;89.65;103427.19;10483465;28;20063;-86
2022/01/14 19:21:47;;;;;;;79.50;22.20;;;;;;;4.37;90.83;103421.31;10470529;28;20057;-86
2022/01/14 19:26:51;;;;;;;70.32;22.17;;;;;;;4.38;89.74;103420.56;10481641;28;20564;-86
2022/01/14 19:31:54;;;;;;;76.22;23.02;;;;;;;4.47;89.63;103419.63;10452136;28;20107;-87
2022/01/14 19:36:58;;;;;;;70.50;22.48;;;;;;;4.42;90.36;103414.09;10460599;28;20051;-86
2022/01/14 19:41:59;;;;;;;74.53;22.90;;;;;;;4.56;89.99;103417.91;10444314;28;20418;-86
2022/01/14 19:47:05;;;;;;;80.15;21.60;;;;;;;4.53;89.86;103410.88;10431840;28;20053;-86
2022/01/14 19:52:07;;;;;;;78.47;23.13;;;;;;;4.38;89.87;103418.03;10438119;28;20045;-86
2022/01/14 19:57:09;;;;;;;98.22;24.45;;;;;;;4.29;90.91;103407.88;10446703;28;20393;-85
2022/01/14 20:02:11;;;;;;;96.05;24.85;;;;;;;4.32;91.86;103408.94;10435630;28;20045;-85
2022/01/14 20:07:17;;;;;;;100.25;23.70;;;;;;;4.27;91.21;103405.94;10439925;28;20057;-86
2022/01/14 20:12:22;;;;;;;88.68;24.88;;;;;;;4.30;90.84;103408.75;10442094;28;20193;-86
2022/01/14 20:17:23;;;;;;;98.05;23.92;;;;;;;4.32;91.35;103391.94;10441341;28;20080;-85
2022/01/14 20:22:27;;;;;;;92.50;24.83;;;;;;;4.32;91.00;103393.59;10440124;28;20104;-86
2022/01/14 20:27:28;;;;;;;83.82;23.30;;;;;;;4.34;90.94;103398.09;10440167;28;20500;-86
2022/01/14 20:32:30;;;;;;;84.53;24.27;;;;;;;4.40;90.82;103388.44;10433063;28;20099;-85
2022/01/14 20:37:36;;;;;;;95.22;27.55;;;;;;;4.28;91.08;103384.78;10441159;28;20041;-85
2022/01/14 20:42:54;;;;;;;103.50;27.65;;;;;;;4.16;91.44;103376.88;10445029;28;20466;-86
2022/01/14 20:48:02;;;;;;;94.45;26.48;;;;;;;4.23;91.57;103380.88;10460644;28;20099;-85
2022/01/14 20:53:05;;;;;;;101.60;27.65;;;;;;;4.51;90.69;103380.84;10437823;28;20056;-85
2022/01/14 20:58:10;;;;;;;96.93;25.08;;;;;;;4.64;90.57;103385.41;10443294;28;20453;-86
2022/01/14 21:03:13;;;;;;;98.03;27.38;;;;;;;4.43;89.93;103382.72;10440741;28;20056;-86
2022/01/14 21:08:35;;;;;;;90.25;29.15;;;;;;;4.32;91.08;103383.41;10458267;28;20039;-85
2022/01/14 21:13:37;;;;;;;115.47;29.17;;;;;;;4.59;90.47;103380.78;10447467;28;20555;-85
2022/01/14 21:18:39;;;;;;;91.18;28.17;;;;;;;4.37;90.05;103375.38;10441866;28;20099;-85
2022/01/14 21:23:41;;;;;;;105.55;27.00;;;;;;;4.40;90.43;103378.22;10445979;28;20479;-85
2022/01/14 21:28:43;;;;;;;91.25;25.58;;;;;;;4.58;90.51;103380.63;10441988;28;20406;-85
2022/01/14 21:33:45;;;;;;;92.93;27.05;;;;;;;4.43;90.62;103382.72;10436297;28;20068;-86
2022/01/14 21:38:46;;;;;;;134.85;31.20;;;;;;;4.37;90.81;103371.94;10447171;28;20484;-85
2022/01/14 21:43:48;;;;;;;119.85;34.03;;;;;;;4.41;91.29;103369.81;10441453;28;20046;-85
2022/01/14 21:48:50;;;;;;;200.38;62.72;;;;;;;4.27;91.15;103375.31;10473831;28;20056;-85
2022/01/14 21:53:52;;;;;;;111.93;29.35;;;;;;;4.44;90.93;103364.97;10453251;28;20163;-86
2022/01/14 21:58:53;;;;;;;103.28;25.67;;;;;;;4.39;90.63;103366.22;10458043;28;20052;-86
2022/01/14 22:04:23;;;;;;;87.07;25.33;;;;;;;4.31;90.99;103356.97;10451908;28;20068;-86
2022/01/14 22:09:24;;;;;;;103.28;26.55;;;;;;;4.51;90.86;103369.00;10455983;28;20040;-85
2022/01/14 22:14:28;;;;;;;106.47;25.95;;;;;;;4.45;90.74;103366.78;10446651;28;20054;-86
2022/01/14 22:19:31;;;;;;;108.60;25.23;;;;;;;4.60;90.37;103366.34;10454259;28;20551;-85
2022/01/14 22:24:33;;;;;;;109.13;29.00;;;;;;;4.47;91.00;103363.47;10450783;28;20037;-85
2022/01/14 22:29:35;;;;;;;163.48;47.47;;;;;;;4.62;90.17;103359.75;10459269;28;20071;-85
2022/01/14 22:34:36;;;;;;;141.52;32.45;;;;;;;4.70;89.59;103353.66;10489140;28;20462;-85
2022/01/14 22:39:39;;;;;;;219.63;72.50;;;;;;;4.49;90.97;103352.63;10454002;28;20106;-85
2022/01/14 22:44:44;;;;;;;134.50;27.63;;;;;;;4.70;90.30;103360.41;10457165;28;20048;-85
2022/01/14 22:49:46;;;;;;;107.55;26.27;;;;;;;4.32;90.74;103361.31;10467176;28;20056;-85
2022/01/14 22:54:47;;;;;;;143.48;26.38;;;;;;;4.68;90.29;103356.84;10449227;28;20084;-85
2022/01/14 22:59:59;;;;;;;116.65;26.23;;;;;;;4.72;89.68;103346.13;10456580;28;20045;-85
2022/01/14 23:05:07;;;;;;;110.95;25.90;;;;;;;4.73;89.23;103338.59;10440835;28;20041;-85
2022/01/14 23:10:09;;;;;;;113.10;24.98;;;;;;;4.77;89.95;103334.66;10450122;28;20067;-86
2022/01/14 23:15:13;;;;;;;107.15;26.80;;;;;;;4.53;90.70;103349.59;10466978;28;20082;-86